Aérodrome :
LOGIN :

S'inscrire | Disclaimer

   EN    FR    IT 

 










Légende :    VFR   VFR Marginal   IFR   IFR Intensif   IFR Très Intensif
Visi : 
Plafond : 
>= 8 km
>= 3000ft
5 à 8 km
1000 à 3000 ft
1500m à 5 km
500 à 1000 ft
800 à 1500m
200 à 500 ft
< 800m
< 200 ft
Symboles :   Orages  Brouillard  Fortes neiges  Fortes précipitations  Vent > 20 kt
SIGMETs :   Divers  Orages  Givrage  Turbulence  Onde Orograph.  Cendres Volcan.






- Altitude de l'aérodrome : 1708 ft
- Code IATA : SJJ


LQSA - Sarajevo

DERNIER METAR :
  • 251630Z 08005KT 030V160 9999 FEW060 17/05 Q1023

METARs EXPIRÉS :
  • 251600Z 06006KT 340V130 9999 FEW055 18/04 Q1023
  • 251530Z VRB02KT 9999 FEW055 SCT060 19/06 Q1023
  • 251500Z VRB02KT 9999 FEW050TCU 19/06 Q1023

TAF TAF LQSA
Valide du 25 à 12h jusqu'au 26 à 12h UTC


251100Z 2512/2612 30006KT 9999 SCT040 TX18/2513Z TN09/2604Z
PROB40
TEMPO 2514/2606 4000 SHRA SCT015 FEW030TCU BKN040
PROB30
TEMPO 2515/2521 34015KT 3000 TSRA SCT010 FEW030CB BKN040
TEMPO 2521/2609 2000 RA BR BKN007 OVC030



MET'MAP, la Météo Aéronautique d'un coup d'oeil ! - Copyright ORBIFLY Décembre 2007 - Disclaimer

ORBIFLY MET'MAP TEAM :

Programmation & Développement : Alexandra Zaïnal
Sur une idée originale de : Baudouin d'Aumeries
Assistance à la programmation : Marc-Olivier Méhu
Soutien technique & logistique : Manuel Goepfert

Contact : metmap@orbifly.com




SOURCES & CREDITS :

   NOAA